createdAt,value
2022-08-10T00:00:08.608Z,18.03
2022-08-10T00:01:08.657Z,18.02
2022-08-10T00:02:08.591Z,18.02
2022-08-10T00:03:08.618Z,17.97
2022-08-10T00:04:08.540Z,17.93
2022-08-10T00:05:08.921Z,17.90
2022-08-10T00:06:08.510Z,17.87
2022-08-10T00:07:08.490Z,17.90
2022-08-10T00:08:08.480Z,17.89
2022-08-10T00:09:08.470Z,17.89
2022-08-10T00:10:08.789Z,17.87
2022-08-10T00:11:15.486Z,17.86
2022-08-10T00:12:09.437Z,17.84
2022-08-10T00:13:08.420Z,17.84
2022-08-10T00:14:08.399Z,17.81
2022-08-10T00:15:08.819Z,17.82
2022-08-10T00:16:08.379Z,17.81
2022-08-10T00:17:08.367Z,17.78
2022-08-10T00:18:08.368Z,17.75
2022-08-10T00:19:08.349Z,17.74
2022-08-10T00:20:08.479Z,17.70
2022-08-10T00:21:08.813Z,17.64
2022-08-10T00:22:08.296Z,17.63
2022-08-10T00:23:08.278Z,17.59
2022-08-10T00:24:08.278Z,17.56
2022-08-10T00:25:08.244Z,17.54
2022-08-10T00:26:08.267Z,17.48
2022-08-10T00:28:01.473Z,17.43
2022-08-10T00:28:09.206Z,17.41
2022-08-10T00:29:09.224Z,17.38
2022-08-10T00:30:08.187Z,17.37
2022-08-10T00:31:08.179Z,17.36
2022-08-10T00:32:08.202Z,17.36
2022-08-10T00:33:08.598Z,17.38
2022-08-10T00:34:08.137Z,17.40
2022-08-10T00:35:08.115Z,17.38
2022-08-10T00:36:08.107Z,17.37
2022-08-10T00:37:08.115Z,17.40
2022-08-10T00:38:08.096Z,17.40
2022-08-10T00:39:11.993Z,17.40
2022-08-10T00:40:09.140Z,17.44
2022-08-10T00:41:08.054Z,17.48
2022-08-10T00:42:08.261Z,17.58
2022-08-10T00:43:08.017Z,17.66
2022-08-10T00:44:08.395Z,17.71
2022-08-10T00:45:07.968Z,17.71
2022-08-10T00:46:07.976Z,17.75
2022-08-10T00:47:20.705Z,17.81
2022-08-10T00:48:08.935Z,17.81
2022-08-10T00:49:07.944Z,17.82
2022-08-10T00:50:08.293Z,17.77
2022-08-10T00:51:07.902Z,17.70
2022-08-10T00:52:07.914Z,17.66
2022-08-10T00:53:07.904Z,17.68
2022-08-10T00:54:07.873Z,17.70
2022-08-10T00:55:09.283Z,17.72
2022-08-10T00:56:34.963Z,17.70
2022-08-10T00:57:16.914Z,17.70
2022-08-10T00:58:08.823Z,17.66
2022-08-10T00:59:07.786Z,17.64
2022-08-10T01:00:07.782Z,17.64
2022-08-10T01:01:11.674Z,17.64
2022-08-10T01:02:11.634Z,17.63
2022-08-10T01:03:07.757Z,17.63
2022-08-10T01:04:57.948Z,17.63
2022-08-10T01:05:08.745Z,17.62
2022-08-10T01:06:08.135Z,17.62
2022-08-10T01:07:08.712Z,17.59
2022-08-10T01:08:07.692Z,17.55
2022-08-10T01:09:07.692Z,17.52
2022-08-10T01:10:07.691Z,17.49
2022-08-10T01:11:07.647Z,17.43
2022-08-10T01:12:40.643Z,17.43
2022-08-10T01:13:08.627Z,17.40
2022-08-10T01:14:07.590Z,17.40
2022-08-10T01:15:07.601Z,17.38
2022-08-10T01:16:07.598Z,17.37
2022-08-10T01:17:08.579Z,17.33
2022-08-10T01:18:07.900Z,17.31
2022-08-10T01:19:07.550Z,17.33
2022-08-10T01:20:07.549Z,17.31
2022-08-10T01:21:07.510Z,17.28
2022-08-10T01:22:07.531Z,17.25
2022-08-10T01:23:07.920Z,17.22
2022-08-10T01:24:07.498Z,17.18
2022-08-10T01:25:07.451Z,17.14
2022-08-10T01:26:11.633Z,17.11
2022-08-10T01:27:08.438Z,17.12
2022-08-10T01:28:07.838Z,17.11
2022-08-10T01:29:07.388Z,17.12
2022-08-10T01:30:07.439Z,17.11
2022-08-10T01:31:07.389Z,17.11
2022-08-10T01:32:09.016Z,17.08
2022-08-10T01:33:07.739Z,17.08
2022-08-10T01:34:07.368Z,17.06
2022-08-10T01:35:07.338Z,17.08
2022-08-10T01:36:07.310Z,17.11
2022-08-10T01:37:07.300Z,17.12
2022-08-10T01:38:07.278Z,17.11
2022-08-10T01:39:07.752Z,17.07
2022-08-10T01:40:07.274Z,17.08
2022-08-10T01:41:07.247Z,17.06
2022-08-10T01:42:07.247Z,17.03
2022-08-10T01:43:08.360Z,17.00
2022-08-10T01:44:07.215Z,17.00
2022-08-10T01:45:07.616Z,16.96
2022-08-10T01:46:07.174Z,16.91
2022-08-10T01:47:07.175Z,16.88
2022-08-10T01:48:16.751Z,16.82
2022-08-10T01:49:08.138Z,16.81
2022-08-10T01:50:07.133Z,16.78
2022-08-10T01:51:07.564Z,16.71
2022-08-10T01:52:07.133Z,16.68
2022-08-10T01:53:07.125Z,16.66
2022-08-10T01:54:10.753Z,16.64
2022-08-10T01:55:08.047Z,16.64
2022-08-10T01:56:07.406Z,16.60
2022-08-10T01:57:07.045Z,16.60
2022-08-10T01:58:07.021Z,16.63
2022-08-10T01:59:07.023Z,16.66
2022-08-10T02:00:07.031Z,16.67
2022-08-10T02:01:07.402Z,16.67
2022-08-10T02:02:07.361Z,16.68
2022-08-10T02:03:06.973Z,16.68
2022-08-10T02:04:06.944Z,16.67
2022-08-10T02:05:06.934Z,16.66
2022-08-10T02:06:07.353Z,16.64
2022-08-10T02:07:06.910Z,16.66
2022-08-10T02:08:06.892Z,16.66
2022-08-10T02:09:07.265Z,16.67
2022-08-10T02:10:06.903Z,16.68
2022-08-10T02:11:07.239Z,16.68
2022-08-10T02:12:08.818Z,16.67
2022-08-10T02:13:06.843Z,16.66
2022-08-10T02:14:06.813Z,16.63
2022-08-10T02:15:06.850Z,16.61
2022-08-10T02:16:07.209Z,16.57
2022-08-10T02:17:06.764Z,16.52
2022-08-10T02:18:06.765Z,16.49
2022-08-10T02:19:06.752Z,16.49
2022-08-10T02:20:07.760Z,16.46
2022-08-10T02:21:07.230Z,16.45
2022-08-10T02:22:36.860Z,16.43
2022-08-10T02:23:07.700Z,16.41
2022-08-10T02:24:06.668Z,16.38
2022-08-10T02:25:06.650Z,16.35
2022-08-10T02:26:07.117Z,16.34
2022-08-10T02:27:06.689Z,16.35
2022-08-10T02:28:06.671Z,16.33
2022-08-10T02:29:06.630Z,16.34
2022-08-10T02:30:07.015Z,16.31
2022-08-10T02:31:06.905Z,16.30
2022-08-10T02:32:06.623Z,16.27
2022-08-10T02:33:06.579Z,16.23
2022-08-10T02:34:06.559Z,16.17
2022-08-10T02:35:06.999Z,16.15
2022-08-10T02:36:06.549Z,16.12
2022-08-10T02:37:10.668Z,16.08
2022-08-10T02:38:06.480Z,16.05
2022-08-10T02:39:06.516Z,16.05
2022-08-10T02:40:06.868Z,16.02
2022-08-10T02:45:12.255Z,16.09
2022-08-10T02:45:15.316Z,16.12
2022-08-10T02:45:19.722Z,16.11
2022-08-10T02:45:22.578Z,16.15
2022-08-10T02:45:22.802Z,16.14
2022-08-10T02:46:07.357Z,16.12
2022-08-10T02:47:06.334Z,16.17
2022-08-10T02:48:06.469Z,16.27
2022-08-10T02:49:06.317Z,16.34
2022-08-10T02:50:06.685Z,16.38
2022-08-10T02:51:06.466Z,16.35
2022-08-10T02:52:08.995Z,16.33
2022-08-10T02:53:06.434Z,16.28
2022-08-10T02:54:06.363Z,16.25
2022-08-10T02:55:18.429Z,16.24
2022-08-10T02:56:07.686Z,16.24
2022-08-10T02:57:06.205Z,16.23
2022-08-10T02:58:13.850Z,16.23
2022-08-10T02:59:07.194Z,16.17
2022-08-10T03:00:06.175Z,16.15
2022-08-10T03:01:06.220Z,16.14
2022-08-10T03:02:06.662Z,16.11
2022-08-10T03:03:06.145Z,16.05
2022-08-10T03:04:06.128Z,16.04
2022-08-10T03:05:06.113Z,15.97
2022-08-10T03:06:06.094Z,15.97
2022-08-10T03:07:06.452Z,15.93
2022-08-10T03:08:06.122Z,15.87
2022-08-10T03:09:06.083Z,15.84
2022-08-10T03:10:13.224Z,15.76
2022-08-10T03:11:07.041Z,15.78
2022-08-10T03:12:36.684Z,15.76
2022-08-10T03:13:06.993Z,15.75
2022-08-10T03:14:06.002Z,15.75
2022-08-10T03:15:05.994Z,15.75
2022-08-10T03:16:05.992Z,15.75
2022-08-10T03:17:05.941Z,15.72
2022-08-10T03:18:06.371Z,15.71
2022-08-10T03:19:05.941Z,15.68
2022-08-10T03:20:38.215Z,15.65
2022-08-10T03:21:11.361Z,15.62
2022-08-10T03:22:07.221Z,15.59
2022-08-10T03:23:05.871Z,15.54
2022-08-10T03:24:24.822Z,15.54
2022-08-10T03:25:06.851Z,15.51
2022-08-10T03:26:05.850Z,15.50
2022-08-10T03:27:05.810Z,15.47
2022-08-10T03:28:05.780Z,15.50
2022-08-10T03:29:06.169Z,15.47
2022-08-10T03:30:28.477Z,15.46
2022-08-10T03:31:06.760Z,15.44
2022-08-10T03:32:05.781Z,15.49
2022-08-10T03:33:06.195Z,15.49
2022-08-10T03:34:05.710Z,15.51
2022-08-10T03:35:06.700Z,15.51
2022-08-10T03:36:42.691Z,15.50
2022-08-10T03:37:06.696Z,15.49
2022-08-10T03:38:06.058Z,15.47
2022-08-10T03:39:05.705Z,15.47
2022-08-10T03:40:05.629Z,15.43
2022-08-10T03:41:05.612Z,15.43
2022-08-10T03:42:05.604Z,15.38
2022-08-10T03:43:06.017Z,15.34
2022-08-10T03:44:05.568Z,15.34
2022-08-10T03:45:05.567Z,15.31
2022-08-10T03:46:05.568Z,15.27
2022-08-10T03:47:15.933Z,15.23
2022-08-10T03:48:06.938Z,15.21
2022-08-10T03:49:05.506Z,15.19
2022-08-10T03:50:27.673Z,15.14
2022-08-10T03:51:06.504Z,15.11
2022-08-10T03:52:05.462Z,15.11
2022-08-10T03:53:05.775Z,15.10
2022-08-10T03:54:07.186Z,15.10
2022-08-10T03:55:05.437Z,15.10
2022-08-10T03:56:29.789Z,15.11
2022-08-10T03:57:06.404Z,15.13
2022-08-10T03:58:05.818Z,15.10
2022-08-10T03:59:05.373Z,15.09
2022-08-10T04:00:06.144Z,15.09
2022-08-10T04:01:05.389Z,15.07
2022-08-10T04:02:43.206Z,15.06
2022-08-10T04:03:06.355Z,15.01
2022-08-10T04:04:13.089Z,14.95
2022-08-10T04:05:06.321Z,14.92
2022-08-10T04:06:05.294Z,14.91
2022-08-10T04:07:05.279Z,14.88
2022-08-10T04:08:05.718Z,14.86
2022-08-10T04:09:05.274Z,14.83
2022-08-10T04:10:05.259Z,14.83
2022-08-10T04:11:05.223Z,14.81
2022-08-10T04:12:05.232Z,14.83
2022-08-10T04:13:05.211Z,14.84
2022-08-10T04:14:05.637Z,14.84
2022-08-10T04:15:05.211Z,14.83
2022-08-10T04:16:07.382Z,14.88
2022-08-10T04:17:05.181Z,14.88
2022-08-10T04:18:06.534Z,14.88
2022-08-10T04:19:05.149Z,14.84
2022-08-10T04:20:05.513Z,14.84
2022-08-10T04:21:05.100Z,14.80
2022-08-10T04:22:05.109Z,14.78
2022-08-10T04:23:05.119Z,14.78
2022-08-10T04:24:05.079Z,14.77
2022-08-10T04:25:05.082Z,14.77
2022-08-10T04:26:05.137Z,14.78
2022-08-10T04:27:05.037Z,14.80
2022-08-10T04:28:05.010Z,14.80
2022-08-10T04:29:04.998Z,14.83
2022-08-10T04:30:05.020Z,14.84
2022-08-10T04:31:04.978Z,14.84
2022-08-10T04:32:05.398Z,14.84
2022-08-10T04:33:04.986Z,14.88
2022-08-10T04:34:08.715Z,14.89
2022-08-10T04:35:04.943Z,14.89
2022-08-10T04:36:04.898Z,14.89
2022-08-10T04:37:08.881Z,14.92
2022-08-10T04:38:04.880Z,14.92
2022-08-10T04:39:04.916Z,14.92
2022-08-10T04:40:04.856Z,14.92
2022-08-10T04:41:05.856Z,14.96
2022-08-10T04:42:04.819Z,14.98
2022-08-10T04:43:11.920Z,14.96
2022-08-10T04:44:05.837Z,14.99
2022-08-10T04:45:04.776Z,15.01
2022-08-10T04:46:04.844Z,15.02
2022-08-10T04:47:05.786Z,15.01
2022-08-10T04:48:04.754Z,15.02
2022-08-10T04:49:05.055Z,15.02
2022-08-10T04:50:05.707Z,15.03
2022-08-10T04:51:04.758Z,15.09
2022-08-10T04:52:04.735Z,15.10
2022-08-10T04:53:04.714Z,15.13
2022-08-10T04:54:08.106Z,15.17
2022-08-10T04:55:04.646Z,15.20
2022-08-10T04:56:04.662Z,15.25
2022-08-10T04:57:04.637Z,15.29
2022-08-10T04:58:04.641Z,15.31
2022-08-10T04:59:05.060Z,15.35
2022-08-10T05:00:07.468Z,15.35
2022-08-10T05:01:05.622Z,15.39
2022-08-10T05:02:28.811Z,15.44
2022-08-10T05:03:05.543Z,15.50
2022-08-10T05:04:34.108Z,15.54
2022-08-10T05:05:05.854Z,15.57
2022-08-10T05:06:04.570Z,15.62
2022-08-10T05:07:04.504Z,15.65
2022-08-10T05:08:04.471Z,15.68
2022-08-10T05:09:04.819Z,15.71
2022-08-10T05:10:06.749Z,15.74
2022-08-10T05:11:04.442Z,15.78
2022-08-10T05:12:04.452Z,15.80
2022-08-10T05:13:04.421Z,15.83
2022-08-10T05:14:04.397Z,15.87
2022-08-10T05:15:04.732Z,15.90
2022-08-10T05:16:04.380Z,16.05
2022-08-10T05:17:04.372Z,16.20
2022-08-10T05:18:09.526Z,16.33
2022-08-10T05:19:05.409Z,16.43
2022-08-10T05:20:06.830Z,16.50
2022-08-10T05:21:04.338Z,16.57
2022-08-10T05:22:05.182Z,16.64
2022-08-10T05:23:04.296Z,16.68
2022-08-10T05:24:04.260Z,16.79
2022-08-10T05:25:04.552Z,16.86
2022-08-10T05:26:04.261Z,16.94
2022-08-10T05:27:10.430Z,16.98
2022-08-10T05:28:06.767Z,17.01
2022-08-10T05:29:04.189Z,17.03
2022-08-10T05:30:04.569Z,17.04
2022-08-10T05:31:04.167Z,17.07
2022-08-10T05:32:04.186Z,17.12
2022-08-10T05:33:08.564Z,17.14
2022-08-10T05:34:04.116Z,17.15
2022-08-10T05:35:05.557Z,17.18
2022-08-10T05:36:04.128Z,17.21
2022-08-10T05:37:04.097Z,17.23
2022-08-10T05:38:11.628Z,17.25
2022-08-10T05:39:05.129Z,17.30
2022-08-10T05:40:04.517Z,17.34
2022-08-10T05:41:04.045Z,17.37
2022-08-10T05:42:04.008Z,17.40
2022-08-10T05:43:04.038Z,17.38
2022-08-10T05:44:03.987Z,17.41
2022-08-10T05:45:04.305Z,17.38
2022-08-10T05:46:17.522Z,17.41
2022-08-10T05:47:06.778Z,17.43
2022-08-10T05:48:54.900Z,17.49
2022-08-10T05:49:04.958Z,17.51
2022-08-10T05:50:03.915Z,17.55
2022-08-10T05:51:04.264Z,17.56
2022-08-10T05:52:03.947Z,17.63
2022-08-10T05:53:59.952Z,17.71
2022-08-10T05:54:06.557Z,17.77
2022-08-10T05:55:03.867Z,17.84
2022-08-10T05:56:03.825Z,17.89
2022-08-10T05:57:04.194Z,17.95
2022-08-10T05:58:03.823Z,17.99
2022-08-10T05:59:03.824Z,18.05
2022-08-10T06:00:35.341Z,18.10
2022-08-10T06:01:04.836Z,18.15
2022-08-10T06:02:33.564Z,18.23
2022-08-10T06:03:05.084Z,18.27
2022-08-10T06:04:03.738Z,18.35
2022-08-10T06:05:03.734Z,18.41
2022-08-10T06:06:03.717Z,18.47
2022-08-10T06:07:03.704Z,18.52
2022-08-10T06:08:04.113Z,18.57
2022-08-10T06:09:03.683Z,18.65
2022-08-10T06:10:03.889Z,18.70
2022-08-10T06:12:24.131Z,18.84
2022-08-10T06:12:28.355Z,18.76
2022-08-10T06:13:05.071Z,19.02
2022-08-10T06:14:15.849Z,19.56
2022-08-10T06:15:05.929Z,20.38
2022-08-10T06:16:04.603Z,21.07
2022-08-10T06:17:03.598Z,21.56
2022-08-10T06:18:03.552Z,22.27
2022-08-10T06:19:03.882Z,22.80
2022-08-10T06:20:03.512Z,23.33
2022-08-10T06:21:03.529Z,23.65
2022-08-10T06:22:03.532Z,23.88
2022-08-10T06:23:03.501Z,24.09
2022-08-10T06:24:03.461Z,24.08
2022-08-10T06:25:32.399Z,24.15
2022-08-10T06:26:09.855Z,24.43
2022-08-10T06:27:04.433Z,24.46
2022-08-10T06:28:03.445Z,24.49
2022-08-10T06:29:04.170Z,24.58
2022-08-10T06:30:03.731Z,24.71
2022-08-10T06:31:04.422Z,24.64
2022-08-10T06:32:03.372Z,24.49
2022-08-10T06:33:03.353Z,24.64
2022-08-10T06:34:03.350Z,24.68
2022-08-10T06:35:03.760Z,25.06
2022-08-10T06:36:03.359Z,25.43
2022-08-10T06:37:03.346Z,25.87
2022-08-10T06:38:03.340Z,26.21
2022-08-10T06:39:23.287Z,25.90
2022-08-10T06:40:04.632Z,25.83
2022-08-10T06:41:03.271Z,25.94
2022-08-10T06:42:16.262Z,25.99
2022-08-10T06:43:04.258Z,26.50
2022-08-10T06:44:03.213Z,26.62
2022-08-10T06:45:03.522Z,26.81
2022-08-10T06:46:08.259Z,26.89
2022-08-10T06:47:04.172Z,26.88
2022-08-10T06:48:03.220Z,27.06
2022-08-10T06:49:03.141Z,27.00
2022-08-10T06:50:04.893Z,27.00
2022-08-10T06:51:04.553Z,27.00
2022-08-10T06:52:03.129Z,27.17
2022-08-10T06:53:03.138Z,26.97
2022-08-10T06:54:03.101Z,27.21
2022-08-10T06:55:05.171Z,27.28
2022-08-10T06:56:03.091Z,27.04
2022-08-10T06:57:18.051Z,27.43
2022-08-10T06:58:04.083Z,27.69
2022-08-10T06:59:03.069Z,27.92
2022-08-10T07:00:03.090Z,28.12
2022-08-10T07:01:03.120Z,28.55
2022-08-10T07:02:02.971Z,28.78
2022-08-10T07:03:03.411Z,28.03
2022-08-10T07:04:02.942Z,28.07
2022-08-10T07:05:02.940Z,28.36
2022-08-10T07:06:02.943Z,28.15
2022-08-10T07:07:02.915Z,28.00
2022-08-10T07:08:02.928Z,28.18
2022-08-10T07:09:03.342Z,28.29
2022-08-10T07:10:02.873Z,28.61
2022-08-10T07:11:02.872Z,28.73
2022-08-10T07:12:08.050Z,29.06
2022-08-10T07:13:03.842Z,29.39
2022-08-10T07:14:15.731Z,29.24
2022-08-10T07:15:03.832Z,29.27
2022-08-10T07:16:02.813Z,29.33
2022-08-10T07:17:02.835Z,29.05
2022-08-10T07:18:02.802Z,29.11
2022-08-10T07:19:02.762Z,29.05
2022-08-10T07:20:04.256Z,28.93
2022-08-10T07:21:02.744Z,28.49
2022-08-10T07:22:02.740Z,28.17
2022-08-10T07:23:55.360Z,28.14
2022-08-10T07:24:04.186Z,28.04
2022-08-10T07:25:03.065Z,28.39
2022-08-10T07:26:02.677Z,28.62
2022-08-10T07:27:09.803Z,28.48
2022-08-10T07:28:09.721Z,28.31
2022-08-10T07:29:52.900Z,28.54
2022-08-10T07:30:09.905Z,29.00
2022-08-10T07:31:36.826Z,28.95
2022-08-10T07:32:09.749Z,28.40
2022-08-10T07:33:09.719Z,28.52
2022-08-10T07:34:09.643Z,28.41
2022-08-10T07:35:09.659Z,28.59
2022-08-10T07:36:09.942Z,28.44
2022-08-10T07:37:09.694Z,27.62
2022-08-10T07:38:09.597Z,27.31
2022-08-10T07:39:09.625Z,27.32
2022-08-10T07:40:09.698Z,27.66
2022-08-10T07:41:09.943Z,27.81
2022-08-10T07:42:09.616Z,27.67
2022-08-10T07:43:09.585Z,27.78
2022-08-10T07:44:10.647Z,27.93
2022-08-10T07:45:10.029Z,27.79
2022-08-10T07:46:09.588Z,28.24
2022-08-10T07:47:10.505Z,28.15
2022-08-10T07:48:09.556Z,28.14
2022-08-10T07:49:15.321Z,28.40
2022-08-10T07:52:22.197Z,27.40
2022-08-10T07:53:21.733Z,27.12
2022-08-10T07:54:28.800Z,27.13
2022-08-10T07:56:04.296Z,27.46
2022-08-10T07:56:47.802Z,27.40
2022-08-10T07:57:31.865Z,27.37
2022-08-10T07:58:28.833Z,27.31
2022-08-10T07:59:29.697Z,27.02
2022-08-10T08:00:28.802Z,27.17
2022-08-10T08:01:28.785Z,26.97
2022-08-10T08:03:38.355Z,27.19
2022-08-10T08:04:44.855Z,27.25
2022-08-10T08:05:57.734Z,27.28
2022-08-10T08:06:38.736Z,27.34
2022-08-10T08:07:37.714Z,27.62
2022-08-10T08:08:37.682Z,27.88
2022-08-10T08:09:38.101Z,27.69
2022-08-10T08:10:38.664Z,27.72
2022-08-10T08:11:37.776Z,27.65
2022-08-10T08:12:38.582Z,28.09
2022-08-10T08:13:37.639Z,28.33
2022-08-10T08:14:38.025Z,28.68
2022-08-10T08:16:19.829Z,28.62
2022-08-10T08:16:38.601Z,29.05
2022-08-10T08:17:37.583Z,29.26
2022-08-10T08:18:37.609Z,29.52
2022-08-10T08:19:46.118Z,29.68
2022-08-10T08:20:38.561Z,29.70
2022-08-10T08:24:05.949Z,28.90
2022-08-10T08:24:06.551Z,29.74
2022-08-10T08:24:08.087Z,29.58
2022-08-10T08:24:39.098Z,28.58
2022-08-10T08:25:37.474Z,28.37
2022-08-10T08:26:37.482Z,28.24
2022-08-10T08:27:37.441Z,28.48
2022-08-10T08:28:37.451Z,28.49
2022-08-10T08:29:37.421Z,28.52
2022-08-10T08:30:37.924Z,28.74
2022-08-10T08:31:37.389Z,28.85
2022-08-10T08:32:38.430Z,28.67
2022-08-10T08:33:43.717Z,28.54
2022-08-10T08:34:38.372Z,28.39
2022-08-10T08:35:37.741Z,28.62
2022-08-10T08:36:37.322Z,29.06
2022-08-10T08:38:31.411Z,29.36
2022-08-10T08:38:38.314Z,29.26
2022-08-10T08:39:37.574Z,28.90
2022-08-10T08:40:37.733Z,28.24
2022-08-10T08:41:37.323Z,27.63
2022-08-10T08:42:37.593Z,27.07
2022-08-10T08:43:37.260Z,26.69
2022-08-10T08:44:37.593Z,26.33
2022-08-10T08:45:37.531Z,26.18
2022-08-10T08:46:38.233Z,26.18
2022-08-10T08:48:03.377Z,26.15
2022-08-10T08:48:38.225Z,26.26
2022-08-10T08:50:04.403Z,26.28
2022-08-10T08:50:38.181Z,26.23
2022-08-10T08:52:09.858Z,26.12
2022-08-10T08:52:38.307Z,26.06
2022-08-10T08:54:02.267Z,26.06
2022-08-10T08:54:38.543Z,26.10
2022-08-10T08:56:01.421Z,26.20
2022-08-10T08:56:38.093Z,26.28
2022-08-10T08:57:49.583Z,26.30
2022-08-10T08:58:38.073Z,26.35
2022-08-10T08:59:37.058Z,26.32
2022-08-10T09:00:37.699Z,26.29
2022-08-10T09:01:38.021Z,26.10
2022-08-10T09:02:37.258Z,25.98
2022-08-10T09:03:37.015Z,26.06
2022-08-10T09:04:37.007Z,26.13
2022-08-10T09:05:59.142Z,26.28
2022-08-10T09:06:37.950Z,26.25
2022-08-10T09:07:59.922Z,26.17
2022-08-10T09:08:37.920Z,26.23
2022-08-10T09:09:36.922Z,26.15
2022-08-10T09:10:37.667Z,26.12
2022-08-10T09:11:37.276Z,26.07
2022-08-10T09:12:37.010Z,26.17
2022-08-10T09:13:36.891Z,26.09
2022-08-10T09:14:36.861Z,26.12
2022-08-10T09:15:39.657Z,26.06
2022-08-10T09:16:36.831Z,26.12
2022-08-10T09:17:36.802Z,26.13
2022-08-10T09:18:36.792Z,26.21
2022-08-10T09:19:36.986Z,26.29
2022-08-10T09:20:37.258Z,26.32
2022-08-10T09:21:55.154Z,26.44
2022-08-10T09:22:37.833Z,26.47
2022-08-10T09:24:05.353Z,26.44
2022-08-10T09:24:37.722Z,26.35
2022-08-10T09:25:37.093Z,26.36
2022-08-10T09:26:36.703Z,26.50
2022-08-10T09:27:36.679Z,26.73
2022-08-10T09:28:36.702Z,26.94
2022-08-10T09:29:36.671Z,26.97
2022-08-10T09:30:38.539Z,27.04
2022-08-10T09:31:39.286Z,27.09
2022-08-10T09:36:15.121Z,27.10
2022-08-10T09:36:22.958Z,26.95
2022-08-10T09:36:27.823Z,27.12
2022-08-10T09:36:29.225Z,26.87
2022-08-10T09:36:37.959Z,26.89
2022-08-10T09:38:00.790Z,27.00
2022-08-10T09:38:37.592Z,26.91
2022-08-10T09:40:06.720Z,26.81
2022-08-10T09:41:01.101Z,26.69
2022-08-10T09:41:37.573Z,26.65
2022-08-10T09:42:36.673Z,26.69
2022-08-10T09:43:36.539Z,26.67
2022-08-10T09:44:58.094Z,26.66
2022-08-10T09:45:37.804Z,26.60
2022-08-10T09:46:36.485Z,26.66
2022-08-10T09:47:58.869Z,26.84
2022-08-10T09:48:37.500Z,26.89
2022-08-10T09:49:54.519Z,26.80
2022-08-10T09:51:20.977Z,26.81
2022-08-10T09:51:46.767Z,26.72
2022-08-10T09:52:37.596Z,26.75
2022-08-10T09:53:36.351Z,26.72
2022-08-10T09:54:36.342Z,26.63
2022-08-10T09:56:18.966Z,26.65
2022-08-10T09:56:37.632Z,26.63
2022-08-10T09:57:44.597Z,26.62
2022-08-10T09:58:37.302Z,26.63
2022-08-10T09:59:59.889Z,26.72
2022-08-10T10:00:37.282Z,26.80
2022-08-10T10:02:00.655Z,26.77
2022-08-10T10:02:37.271Z,26.85
2022-08-10T10:03:36.366Z,26.94
2022-08-10T10:04:36.253Z,26.94
2022-08-10T10:05:36.202Z,26.88
2022-08-10T10:06:36.181Z,26.91
2022-08-10T10:07:36.811Z,27.04
2022-08-10T10:08:39.524Z,27.09
2022-08-10T10:09:37.143Z,26.94
2022-08-10T10:10:36.164Z,26.88
2022-08-10T10:11:37.142Z,26.73
2022-08-10T10:12:36.131Z,26.69
2022-08-10T10:13:49.008Z,26.82
2022-08-10T10:14:37.113Z,26.84
2022-08-10T10:15:36.062Z,26.75
2022-08-10T10:16:36.046Z,26.75
2022-08-10T10:17:36.140Z,26.85
2022-08-10T10:18:36.359Z,26.94
2022-08-10T10:19:40.329Z,26.95
2022-08-10T10:20:36.074Z,26.82
2022-08-10T10:21:55.047Z,26.84
2022-08-10T10:22:36.979Z,26.89
2022-08-10T10:23:35.988Z,27.10
2022-08-10T10:24:36.408Z,27.37
2022-08-10T10:25:50.706Z,27.46
2022-08-10T10:26:36.930Z,27.51
2022-08-10T10:27:36.040Z,27.55
2022-08-10T10:29:11.333Z,27.47
2022-08-10T10:29:56.919Z,27.40
2022-08-10T10:30:37.261Z,27.39
2022-08-10T10:31:35.872Z,27.29
2022-08-10T10:32:37.354Z,27.36
2022-08-10T10:33:35.899Z,27.46
2022-08-10T10:34:35.859Z,27.59
2022-08-10T10:35:36.145Z,27.51
2022-08-10T10:36:35.809Z,27.60
2022-08-10T10:38:01.247Z,27.54
2022-08-10T10:38:36.770Z,27.60
2022-08-10T10:39:35.834Z,27.51
2022-08-10T10:40:35.759Z,27.54
2022-08-10T10:42:03.406Z,27.51
2022-08-10T10:42:45.529Z,27.51
2022-08-10T10:43:36.724Z,27.54
2022-08-10T10:44:40.205Z,27.55
2022-08-10T10:45:41.681Z,27.37
2022-08-10T10:46:37.024Z,27.27
2022-08-10T10:47:35.771Z,27.24
2022-08-10T10:48:35.630Z,27.34
2022-08-10T10:49:35.638Z,27.59
2022-08-10T10:50:35.644Z,27.77
2022-08-10T10:51:35.598Z,27.63
2022-08-10T10:52:35.960Z,27.70
2022-08-10T10:53:35.590Z,27.54
2022-08-10T10:54:35.568Z,27.51
2022-08-10T10:56:13.803Z,27.72
2022-08-10T10:56:36.576Z,27.88
2022-08-10T10:57:59.202Z,28.02
2022-08-10T10:58:36.529Z,27.99
2022-08-10T10:59:55.641Z,27.92
2022-08-10T11:00:36.504Z,27.84
2022-08-10T11:01:35.556Z,27.85
2022-08-10T11:02:35.457Z,27.75
2022-08-10T11:03:35.598Z,27.62
2022-08-10T11:04:35.439Z,27.60
2022-08-10T11:05:35.416Z,27.54
2022-08-10T11:06:40.620Z,27.65
2022-08-10T11:07:36.496Z,27.79
2022-08-10T11:08:36.630Z,27.90
2022-08-10T11:10:03.962Z,27.92
2022-08-10T11:10:46.262Z,27.96
2022-08-10T11:12:00.321Z,27.97
2022-08-10T11:12:36.330Z,28.00
2022-08-10T11:14:27.037Z,27.99
2022-08-10T11:14:36.326Z,28.15
2022-08-10T11:15:36.447Z,28.09
2022-08-10T11:16:36.281Z,27.99
2022-08-10T11:17:35.498Z,27.88
2022-08-10T11:18:35.649Z,27.99
2022-08-10T11:20:01.462Z,28.09
2022-08-10T11:20:36.289Z,28.30
2022-08-10T11:21:35.250Z,28.34
2022-08-10T11:22:36.741Z,28.29
2022-08-10T11:23:35.196Z,28.15
2022-08-10T11:24:47.893Z,28.04
2022-08-10T11:25:36.162Z,28.09
2022-08-10T11:26:35.202Z,28.00
2022-08-10T11:27:35.226Z,28.06
2022-08-10T11:28:37.142Z,28.15
2022-08-10T11:29:35.142Z,28.18
2022-08-10T11:30:35.459Z,28.24
2022-08-10T11:31:35.118Z,28.30
2022-08-10T11:32:35.095Z,28.39
2022-08-10T11:33:46.684Z,28.33
2022-08-10T11:34:47.158Z,28.33
2022-08-10T11:35:36.392Z,28.36
2022-08-10T11:36:35.419Z,28.33
2022-08-10T11:38:28.671Z,28.33
2022-08-10T11:38:47.467Z,28.39
2022-08-10T11:39:36.056Z,28.33
2022-08-10T11:40:35.031Z,28.25
2022-08-10T11:42:09.751Z,28.11
2022-08-10T11:42:36.637Z,28.17
2022-08-10T11:43:34.980Z,28.36
2022-08-10T11:44:34.908Z,28.52
2022-08-10T11:45:34.955Z,28.64
2022-08-10T11:46:35.217Z,28.71
2022-08-10T11:47:34.902Z,28.70
2022-08-10T11:48:53.238Z,28.76
2022-08-10T11:49:35.871Z,28.83
2022-08-10T11:50:35.304Z,28.95
2022-08-10T11:51:34.838Z,29.09
2022-08-10T11:52:34.905Z,29.23
2022-08-10T11:53:38.801Z,29.15
2022-08-10T11:54:34.906Z,29.08
2022-08-10T11:55:35.284Z,29.08
2022-08-10T11:56:34.819Z,29.12
2022-08-10T11:57:53.534Z,28.93
2022-08-10T11:58:35.779Z,28.61
2022-08-10T11:59:34.737Z,28.48
2022-08-10T12:00:35.171Z,28.41
2022-08-10T12:01:34.727Z,28.62
2022-08-10T12:02:34.768Z,28.95
2022-08-10T12:03:35.071Z,28.80
2022-08-10T12:04:34.649Z,28.61
2022-08-10T12:05:52.592Z,28.83
2022-08-10T12:06:54.627Z,28.98
2022-08-10T12:08:54.555Z,28.74
2022-08-10T12:10:06.365Z,28.61
2022-08-10T12:10:09.306Z,28.74
2022-08-10T12:10:40.647Z,28.90
2022-08-10T12:11:34.602Z,29.02
2022-08-10T12:12:34.572Z,29.05
2022-08-10T12:13:34.568Z,28.89
2022-08-10T12:14:34.588Z,28.95
2022-08-10T12:15:34.645Z,28.96
2022-08-10T12:16:34.527Z,29.09
2022-08-10T12:17:34.515Z,29.37
2022-08-10T12:18:34.597Z,29.48
2022-08-10T12:19:59.857Z,29.42
2022-08-10T12:20:35.557Z,29.33
2022-08-10T12:21:34.493Z,29.16
2022-08-10T12:22:34.518Z,29.28
2022-08-10T12:23:39.252Z,29.43
2022-08-10T12:24:35.399Z,29.55
2022-08-10T12:25:56.985Z,29.68
2022-08-10T12:26:35.819Z,29.73
2022-08-10T12:27:34.374Z,29.80
2022-08-10T12:28:49.988Z,29.73
2022-08-10T12:29:37.085Z,29.71
2022-08-10T12:30:34.659Z,29.80
2022-08-10T12:31:34.331Z,29.90
2022-08-10T12:32:34.291Z,29.89
2022-08-10T12:34:01.511Z,30.01
2022-08-10T12:34:35.309Z,30.00
2022-08-10T12:35:34.261Z,30.00
2022-08-10T12:36:34.693Z,29.87
2022-08-10T12:37:34.240Z,29.86
2022-08-10T12:38:34.225Z,29.92
2022-08-10T12:39:34.281Z,29.76
2022-08-10T12:40:36.056Z,29.70
2022-08-10T12:41:43.658Z,29.74
2022-08-10T12:43:13.368Z,29.55
2022-08-10T12:44:06.299Z,29.46
2022-08-10T12:44:42.370Z,29.41
2022-08-10T12:45:35.125Z,29.52
2022-08-10T12:46:34.230Z,29.51
2022-08-10T12:47:34.089Z,29.58
2022-08-10T12:48:34.408Z,29.60
2022-08-10T12:49:34.073Z,29.57
2022-08-10T12:50:34.191Z,29.67
2022-08-10T12:51:34.129Z,29.78
2022-08-10T12:52:34.060Z,29.85
2022-08-10T12:53:34.148Z,30.01
2022-08-10T12:54:34.009Z,29.97
2022-08-10T12:55:34.003Z,29.79